sensor_id;sensor_type;location;lat;lon;timestamp;temperature;humidity
4376;DHT22;2202;50.866;12.750;2023-02-26T00:00:08;-2.30;97.10
4376;DHT22;2202;50.866;12.750;2023-02-26T00:02:37;-2.30;97.00
4376;DHT22;2202;50.866;12.750;2023-02-26T00:05:05;-2.40;97.00
4376;DHT22;2202;50.866;12.750;2023-02-26T00:07:32;-2.40;97.00
4376;DHT22;2202;50.866;12.750;2023-02-26T00:09:59;-2.40;97.10
4376;DHT22;2202;50.866;12.750;2023-02-26T00:12:27;-2.50;97.10
4376;DHT22;2202;50.866;12.750;2023-02-26T00:14:55;-2.40;97.20
4376;DHT22;2202;50.866;12.750;2023-02-26T00:17:30;-2.50;97.00
4376;DHT22;2202;50.866;12.750;2023-02-26T00:19:58;-2.50;97.30
4376;DHT22;2202;50.866;12.750;2023-02-26T00:22:25;-2.50;97.30
4376;DHT22;2202;50.866;12.750;2023-02-26T00:24:52;-2.50;97.50
4376;DHT22;2202;50.866;12.750;2023-02-26T00:27:19;-2.40;97.60
4376;DHT22;2202;50.866;12.750;2023-02-26T00:29:47;-2.40;97.50
4376;DHT22;2202;50.866;12.750;2023-02-26T00:32:15;-2.40;97.40
4376;DHT22;2202;50.866;12.750;2023-02-26T00:34:46;-2.30;97.60
4376;DHT22;2202;50.866;12.750;2023-02-26T00:37:23;-2.30;97.60
4376;DHT22;2202;50.866;12.750;2023-02-26T00:40:00;-2.30;97.40
4376;DHT22;2202;50.866;12.750;2023-02-26T00:42:31;-2.30;97.50
4376;DHT22;2202;50.866;12.750;2023-02-26T00:44:58;-2.20;97.60
4376;DHT22;2202;50.866;12.750;2023-02-26T00:47:31;-2.20;97.60
4376;DHT22;2202;50.866;12.750;2023-02-26T00:50:12;-2.20;97.60
4376;DHT22;2202;50.866;12.750;2023-02-26T00:52:45;-2.20;97.40
4376;DHT22;2202;50.866;12.750;2023-02-26T00:55:13;-2.20;97.30
4376;DHT22;2202;50.866;12.750;2023-02-26T00:57:40;-2.10;97.30
4376;DHT22;2202;50.866;12.750;2023-02-26T01:00:08;-2.20;97.30
4376;DHT22;2202;50.866;12.750;2023-02-26T01:02:37;-2.30;97.40
4376;DHT22;2202;50.866;12.750;2023-02-26T01:05:07;-2.30;97.40
4376;DHT22;2202;50.866;12.750;2023-02-26T01:07:41;-2.30;97.50
4376;DHT22;2202;50.866;12.750;2023-02-26T01:10:11;-2.40;97.60
4376;DHT22;2202;50.866;12.750;2023-02-26T01:12:38;-2.40;97.60
4376;DHT22;2202;50.866;12.750;2023-02-26T01:15:06;-2.40;97.90
4376;DHT22;2202;50.866;12.750;2023-02-26T01:17:39;-2.30;97.70
4376;DHT22;2202;50.866;12.750;2023-02-26T01:20:15;-2.30;98.00
4376;DHT22;2202;50.866;12.750;2023-02-26T01:22:45;-2.30;98.00
4376;DHT22;2202;50.866;12.750;2023-02-26T01:25:19;-2.30;97.70
4376;DHT22;2202;50.866;12.750;2023-02-26T01:27:47;-2.30;97.80
4376;DHT22;2202;50.866;12.750;2023-02-26T01:30:15;-2.30;97.80
4376;DHT22;2202;50.866;12.750;2023-02-26T01:32:45;-2.30;97.90
4376;DHT22;2202;50.866;12.750;2023-02-26T01:35:36;-2.30;97.90
4376;DHT22;2202;50.866;12.750;2023-02-26T01:38:12;-2.20;97.90
4376;DHT22;2202;50.866;12.750;2023-02-26T01:43:59;-2.30;97.80
4376;DHT22;2202;50.866;12.750;2023-02-26T01:46:33;-2.30;98.00
4376;DHT22;2202;50.866;12.750;2023-02-26T01:49:03;-2.40;97.80
4376;DHT22;2202;50.866;12.750;2023-02-26T01:51:43;-2.40;97.90
4376;DHT22;2202;50.866;12.750;2023-02-26T01:54:11;-2.50;98.20
4376;DHT22;2202;50.866;12.750;2023-02-26T01:56:38;-2.50;98.30
4376;DHT22;2202;50.866;12.750;2023-02-26T01:59:08;-2.40;98.20
4376;DHT22;2202;50.866;12.750;2023-02-26T02:01:37;-2.40;98.10
4376;DHT22;2202;50.866;12.750;2023-02-26T02:04:06;-2.40;98.10
4376;DHT22;2202;50.866;12.750;2023-02-26T02:06:35;-2.40;98.10
4376;DHT22;2202;50.866;12.750;2023-02-26T02:09:06;-2.40;98.20
4376;DHT22;2202;50.866;12.750;2023-02-26T02:11:34;-2.40;98.20
4376;DHT22;2202;50.866;12.750;2023-02-26T02:14:11;-2.40;98.30
4376;DHT22;2202;50.866;12.750;2023-02-26T02:16:47;-2.40;98.30
4376;DHT22;2202;50.866;12.750;2023-02-26T02:22:34;-2.30;98.40
4376;DHT22;2202;50.866;12.750;2023-02-26T02:25:19;-2.30;98.20
4376;DHT22;2202;50.866;12.750;2023-02-26T02:27:55;-2.40;98.20
4376;DHT22;2202;50.866;12.750;2023-02-26T02:30:34;-2.40;98.40
4376;DHT22;2202;50.866;12.750;2023-02-26T02:33:12;-2.30;98.60
4376;DHT22;2202;50.866;12.750;2023-02-26T02:35:43;-2.30;98.60
4376;DHT22;2202;50.866;12.750;2023-02-26T02:38:14;-2.20;98.50
4376;DHT22;2202;50.866;12.750;2023-02-26T02:40:45;-2.30;98.50
4376;DHT22;2202;50.866;12.750;2023-02-26T02:43:15;-2.30;98.40
4376;DHT22;2202;50.866;12.750;2023-02-26T02:45:44;-2.30;98.50
4376;DHT22;2202;50.866;12.750;2023-02-26T02:48:17;-2.20;98.50
4376;DHT22;2202;50.866;12.750;2023-02-26T02:50:49;-2.20;98.50
4376;DHT22;2202;50.866;12.750;2023-02-26T02:53:20;-2.20;98.40
4376;DHT22;2202;50.866;12.750;2023-02-26T02:55:52;-2.30;98.30
4376;DHT22;2202;50.866;12.750;2023-02-26T02:58:22;-2.30;98.40
4376;DHT22;2202;50.866;12.750;2023-02-26T03:00:54;-2.30;98.40
4376;DHT22;2202;50.866;12.750;2023-02-26T03:03:28;-2.30;98.40
4376;DHT22;2202;50.866;12.750;2023-02-26T03:05:57;-2.30;98.30
4376;DHT22;2202;50.866;12.750;2023-02-26T03:08:28;-2.30;98.30
4376;DHT22;2202;50.866;12.750;2023-02-26T03:10:56;-2.30;98.40
4376;DHT22;2202;50.866;12.750;2023-02-26T03:13:24;-2.30;98.30
4376;DHT22;2202;50.866;12.750;2023-02-26T03:15:59;-2.30;98.30
4376;DHT22;2202;50.866;12.750;2023-02-26T03:18:37;-2.30;98.30
4376;DHT22;2202;50.866;12.750;2023-02-26T03:21:12;-2.30;98.30
4376;DHT22;2202;50.866;12.750;2023-02-26T03:23:48;-2.30;98.10
4376;DHT22;2202;50.866;12.750;2023-02-26T03:26:23;-2.40;98.20
4376;DHT22;2202;50.866;12.750;2023-02-26T03:28:56;-2.30;98.40
4376;DHT22;2202;50.866;12.750;2023-02-26T03:31:30;-2.30;98.40
4376;DHT22;2202;50.866;12.750;2023-02-26T03:34:02;-2.30;98.40
4376;DHT22;2202;50.866;12.750;2023-02-26T03:36:36;-2.30;98.30
4376;DHT22;2202;50.866;12.750;2023-02-26T03:39:08;-2.30;98.50
4376;DHT22;2202;50.866;12.750;2023-02-26T03:41:39;-2.30;98.50
4376;DHT22;2202;50.866;12.750;2023-02-26T03:44:15;-2.20;98.40
4376;DHT22;2202;50.866;12.750;2023-02-26T03:46:48;-2.20;98.40
4376;DHT22;2202;50.866;12.750;2023-02-26T03:49:23;-2.20;98.40
4376;DHT22;2202;50.866;12.750;2023-02-26T03:51:52;-2.20;98.40
4376;DHT22;2202;50.866;12.750;2023-02-26T03:54:21;-2.20;98.40
4376;DHT22;2202;50.866;12.750;2023-02-26T03:56:51;-2.20;98.40
4376;DHT22;2202;50.866;12.750;2023-02-26T03:59:19;-2.20;98.30
4376;DHT22;2202;50.866;12.750;2023-02-26T04:01:51;-2.20;98.30
4376;DHT22;2202;50.866;12.750;2023-02-26T04:04:25;-2.10;98.30
4376;DHT22;2202;50.866;12.750;2023-02-26T04:06:53;-2.10;98.30
4376;DHT22;2202;50.866;12.750;2023-02-26T04:09:21;-2.10;98.20
4376;DHT22;2202;50.866;12.750;2023-02-26T04:11:49;-2.00;98.20
4376;DHT22;2202;50.866;12.750;2023-02-26T04:14:17;-2.00;98.10
4376;DHT22;2202;50.866;12.750;2023-02-26T04:16:44;-2.10;98.00
4376;DHT22;2202;50.866;12.750;2023-02-26T04:19:12;-2.10;98.10
4376;DHT22;2202;50.866;12.750;2023-02-26T04:21:40;-2.10;98.10
4376;DHT22;2202;50.866;12.750;2023-02-26T04:24:07;-2.10;98.10
4376;DHT22;2202;50.866;12.750;2023-02-26T04:26:34;-2.20;98.20
4376;DHT22;2202;50.866;12.750;2023-02-26T04:29:01;-2.10;98.40
4376;DHT22;2202;50.866;12.750;2023-02-26T04:31:27;-2.10;98.30
4376;DHT22;2202;50.866;12.750;2023-02-26T04:33:54;-2.10;98.20
4376;DHT22;2202;50.866;12.750;2023-02-26T04:36:21;-2.10;98.30
4376;DHT22;2202;50.866;12.750;2023-02-26T04:38:49;-2.00;98.30
4376;DHT22;2202;50.866;12.750;2023-02-26T04:41:16;-2.00;98.00
4376;DHT22;2202;50.866;12.750;2023-02-26T04:43:43;-2.00;98.10
4376;DHT22;2202;50.866;12.750;2023-02-26T04:46:10;-2.00;98.10
4376;DHT22;2202;50.866;12.750;2023-02-26T04:48:37;-2.00;98.00
4376;DHT22;2202;50.866;12.750;2023-02-26T04:51:04;-2.00;98.10
4376;DHT22;2202;50.866;12.750;2023-02-26T04:53:31;-1.90;98.10
4376;DHT22;2202;50.866;12.750;2023-02-26T04:55:59;-1.90;98.00
4376;DHT22;2202;50.866;12.750;2023-02-26T04:58:26;-2.00;98.00
4376;DHT22;2202;50.866;12.750;2023-02-26T05:00:53;-2.00;98.00
4376;DHT22;2202;50.866;12.750;2023-02-26T05:03:20;-2.00;98.00
4376;DHT22;2202;50.866;12.750;2023-02-26T05:05:48;-2.00;98.00
4376;DHT22;2202;50.866;12.750;2023-02-26T05:08:15;-2.00;97.80
4376;DHT22;2202;50.866;12.750;2023-02-26T05:10:42;-2.00;97.80
4376;DHT22;2202;50.866;12.750;2023-02-26T05:13:10;-2.10;97.80
4376;DHT22;2202;50.866;12.750;2023-02-26T05:15:37;-2.10;98.00
4376;DHT22;2202;50.866;12.750;2023-02-26T05:18:04;-2.00;98.10
4376;DHT22;2202;50.866;12.750;2023-02-26T05:20:30;-2.00;98.20
4376;DHT22;2202;50.866;12.750;2023-02-26T05:22:57;-2.00;97.90
4376;DHT22;2202;50.866;12.750;2023-02-26T05:25:24;-2.00;98.00
4376;DHT22;2202;50.866;12.750;2023-02-26T05:27:51;-2.00;98.20
4376;DHT22;2202;50.866;12.750;2023-02-26T05:30:19;-2.00;97.90
4376;DHT22;2202;50.866;12.750;2023-02-26T05:32:46;-2.00;97.90
4376;DHT22;2202;50.866;12.750;2023-02-26T05:35:13;-2.00;98.00
4376;DHT22;2202;50.866;12.750;2023-02-26T05:37:40;-1.90;98.10
4376;DHT22;2202;50.866;12.750;2023-02-26T05:40:09;-1.90;97.90
4376;DHT22;2202;50.866;12.750;2023-02-26T05:42:36;-1.90;97.80
4376;DHT22;2202;50.866;12.750;2023-02-26T05:45:04;-2.00;97.60
4376;DHT22;2202;50.866;12.750;2023-02-26T05:47:33;-2.00;97.80
4376;DHT22;2202;50.866;12.750;2023-02-26T05:50:00;-2.00;98.00
4376;DHT22;2202;50.866;12.750;2023-02-26T05:52:27;-2.00;98.10
4376;DHT22;2202;50.866;12.750;2023-02-26T05:54:54;-1.90;97.90
4376;DHT22;2202;50.866;12.750;2023-02-26T05:57:20;-2.00;97.80
4376;DHT22;2202;50.866;12.750;2023-02-26T05:59:47;-2.00;98.00
4376;DHT22;2202;50.866;12.750;2023-02-26T06:02:15;-2.00;97.90
4376;DHT22;2202;50.866;12.750;2023-02-26T06:04:43;-2.00;98.00
4376;DHT22;2202;50.866;12.750;2023-02-26T06:07:10;-1.90;98.00
4376;DHT22;2202;50.866;12.750;2023-02-26T06:09:37;-1.80;98.00
4376;DHT22;2202;50.866;12.750;2023-02-26T06:12:04;-1.90;97.80
4376;DHT22;2202;50.866;12.750;2023-02-26T06:14:31;-1.90;98.00
4376;DHT22;2202;50.866;12.750;2023-02-26T06:16:58;-2.00;97.90
4376;DHT22;2202;50.866;12.750;2023-02-26T06:19:25;-1.90;98.10
4376;DHT22;2202;50.866;12.750;2023-02-26T06:21:53;-1.90;98.10
4376;DHT22;2202;50.866;12.750;2023-02-26T06:24:20;-1.90;98.10
4376;DHT22;2202;50.866;12.750;2023-02-26T06:26:47;-1.90;98.00
4376;DHT22;2202;50.866;12.750;2023-02-26T06:29:14;-1.90;98.00
4376;DHT22;2202;50.866;12.750;2023-02-26T06:31:42;-1.90;98.10
4376;DHT22;2202;50.866;12.750;2023-02-26T06:34:09;-1.90;98.10
4376;DHT22;2202;50.866;12.750;2023-02-26T06:36:36;-1.90;98.20
4376;DHT22;2202;50.866;12.750;2023-02-26T06:39:05;-1.80;98.30
4376;DHT22;2202;50.866;12.750;2023-02-26T06:41:32;-1.80;98.20
4376;DHT22;2202;50.866;12.750;2023-02-26T06:43:59;-1.80;98.40
4376;DHT22;2202;50.866;12.750;2023-02-26T06:46:26;-1.70;98.30
4376;DHT22;2202;50.866;12.750;2023-02-26T06:48:53;-1.70;97.80
4376;DHT22;2202;50.866;12.750;2023-02-26T06:51:20;-1.80;98.00
4376;DHT22;2202;50.866;12.750;2023-02-26T06:53:46;-1.70;98.10
4376;DHT22;2202;50.866;12.750;2023-02-26T06:56:15;-1.70;97.90
4376;DHT22;2202;50.866;12.750;2023-02-26T06:58:42;-1.70;97.50
4376;DHT22;2202;50.866;12.750;2023-02-26T07:01:08;-1.70;97.70
4376;DHT22;2202;50.866;12.750;2023-02-26T07:03:35;-1.70;97.60
4376;DHT22;2202;50.866;12.750;2023-02-26T07:06:03;-1.70;97.50
4376;DHT22;2202;50.866;12.750;2023-02-26T07:08:32;-1.70;97.50
4376;DHT22;2202;50.866;12.750;2023-02-26T07:10:59;-1.60;97.50
4376;DHT22;2202;50.866;12.750;2023-02-26T07:13:27;-1.50;97.20
4376;DHT22;2202;50.866;12.750;2023-02-26T07:15:54;-1.50;97.20
4376;DHT22;2202;50.866;12.750;2023-02-26T07:18:21;-1.50;96.80
4376;DHT22;2202;50.866;12.750;2023-02-26T07:20:48;-1.50;97.00
4376;DHT22;2202;50.866;12.750;2023-02-26T07:23:15;-1.40;97.00
4376;DHT22;2202;50.866;12.750;2023-02-26T07:25:42;-1.40;96.90
4376;DHT22;2202;50.866;12.750;2023-02-26T07:28:09;-1.40;96.40
4376;DHT22;2202;50.866;12.750;2023-02-26T07:30:37;-1.40;96.30
4376;DHT22;2202;50.866;12.750;2023-02-26T07:33:06;-1.30;96.40
4376;DHT22;2202;50.866;12.750;2023-02-26T07:35:33;-1.30;96.00
4376;DHT22;2202;50.866;12.750;2023-02-26T07:38:00;-1.30;95.60
4376;DHT22;2202;50.866;12.750;2023-02-26T07:40:27;-1.30;95.40
4376;DHT22;2202;50.866;12.750;2023-02-26T07:42:54;-1.30;95.40
4376;DHT22;2202;50.866;12.750;2023-02-26T07:45:21;-1.30;95.40
4376;DHT22;2202;50.866;12.750;2023-02-26T07:47:50;-1.20;95.20
4376;DHT22;2202;50.866;12.750;2023-02-26T07:50:17;-1.20;95.20
4376;DHT22;2202;50.866;12.750;2023-02-26T07:52:44;-1.20;95.10
4376;DHT22;2202;50.866;12.750;2023-02-26T07:55:11;-1.10;95.00
4376;DHT22;2202;50.866;12.750;2023-02-26T07:57:38;-1.10;94.90
4376;DHT22;2202;50.866;12.750;2023-02-26T08:00:06;-1.10;94.60
4376;DHT22;2202;50.866;12.750;2023-02-26T08:02:33;-1.00;94.80
4376;DHT22;2202;50.866;12.750;2023-02-26T08:05:01;-1.00;94.30
4376;DHT22;2202;50.866;12.750;2023-02-26T08:07:28;-1.10;94.60
4376;DHT22;2202;50.866;12.750;2023-02-26T08:09:55;-1.00;94.60
4376;DHT22;2202;50.866;12.750;2023-02-26T08:12:22;-1.00;94.70
4376;DHT22;2202;50.866;12.750;2023-02-26T08:14:49;-1.00;94.00
4376;DHT22;2202;50.866;12.750;2023-02-26T08:17:15;-0.90;94.20
4376;DHT22;2202;50.866;12.750;2023-02-26T08:19:42;-0.90;94.20
4376;DHT22;2202;50.866;12.750;2023-02-26T08:22:10;-0.80;94.20
4376;DHT22;2202;50.866;12.750;2023-02-26T08:24:38;-0.70;93.80
4376;DHT22;2202;50.866;12.750;2023-02-26T08:27:05;-0.70;93.40
4376;DHT22;2202;50.866;12.750;2023-02-26T08:29:32;-0.70;93.50
4376;DHT22;2202;50.866;12.750;2023-02-26T08:31:59;-0.60;93.70
4376;DHT22;2202;50.866;12.750;2023-02-26T08:34:25;-0.50;93.60
4376;DHT22;2202;50.866;12.750;2023-02-26T08:36:52;-0.30;93.50
4376;DHT22;2202;50.866;12.750;2023-02-26T08:39:20;-0.20;92.30
4376;DHT22;2202;50.866;12.750;2023-02-26T08:41:47;-0.50;91.30
4376;DHT22;2202;50.866;12.750;2023-02-26T08:44:14;-0.50;91.90
4376;DHT22;2202;50.866;12.750;2023-02-26T08:46:41;-0.40;92.10
4376;DHT22;2202;50.866;12.750;2023-02-26T08:49:08;-0.30;92.20
4376;DHT22;2202;50.866;12.750;2023-02-26T08:51:35;-0.20;92.20
4376;DHT22;2202;50.866;12.750;2023-02-26T08:54:02;-0.40;90.90
4376;DHT22;2202;50.866;12.750;2023-02-26T08:56:30;-0.50;91.40
4376;DHT22;2202;50.866;12.750;2023-02-26T08:58:57;-0.60;91.40
4376;DHT22;2202;50.866;12.750;2023-02-26T09:01:24;-0.50;91.70
4376;DHT22;2202;50.866;12.750;2023-02-26T09:03:50;-0.50;91.90
4376;DHT22;2202;50.866;12.750;2023-02-26T09:06:17;-0.40;91.80
4376;DHT22;2202;50.866;12.750;2023-02-26T09:08:44;-0.30;91.30
4376;DHT22;2202;50.866;12.750;2023-02-26T09:11:11;-0.30;90.70
4376;DHT22;2202;50.866;12.750;2023-02-26T09:13:39;-0.20;90.80
4376;DHT22;2202;50.866;12.750;2023-02-26T09:16:06;-0.20;89.80
4376;DHT22;2202;50.866;12.750;2023-02-26T09:18:33;-0.20;90.40
4376;DHT22;2202;50.866;12.750;2023-02-26T09:21:00;-0.20;89.40
4376;DHT22;2202;50.866;12.750;2023-02-26T09:23:28;-0.20;89.20
4376;DHT22;2202;50.866;12.750;2023-02-26T09:25:56;-0.20;89.80
4376;DHT22;2202;50.866;12.750;2023-02-26T09:28:24;-0.10;90.00
4376;DHT22;2202;50.866;12.750;2023-02-26T09:30:52;0.00;88.20
4376;DHT22;2202;50.866;12.750;2023-02-26T09:33:20;0.00;89.20
4376;DHT22;2202;50.866;12.750;2023-02-26T09:35:47;0.10;88.60
4376;DHT22;2202;50.866;12.750;2023-02-26T09:38:15;-0.10;88.20
4376;DHT22;2202;50.866;12.750;2023-02-26T09:40:47;0.00;89.40
4376;DHT22;2202;50.866;12.750;2023-02-26T09:43:46;0.10;88.40
4376;DHT22;2202;50.866;12.750;2023-02-26T09:46:29;0.10;88.60
4376;DHT22;2202;50.866;12.750;2023-02-26T09:49:04;0.30;88.40
4376;DHT22;2202;50.866;12.750;2023-02-26T09:51:33;0.30;86.40
4376;DHT22;2202;50.866;12.750;2023-02-26T09:54:06;0.20;85.00
4376;DHT22;2202;50.866;12.750;2023-02-26T09:56:37;0.00;86.20
4376;DHT22;2202;50.866;12.750;2023-02-26T09:59:04;0.00;88.00
4376;DHT22;2202;50.866;12.750;2023-02-26T10:01:37;0.10;87.20
4376;DHT22;2202;50.866;12.750;2023-02-26T10:04:13;0.20;88.80
4376;DHT22;2202;50.866;12.750;2023-02-26T10:06:55;0.20;86.20
4376;DHT22;2202;50.866;12.750;2023-02-26T10:09:34;0.20;87.40
4376;DHT22;2202;50.866;12.750;2023-02-26T10:12:06;0.20;87.00
4376;DHT22;2202;50.866;12.750;2023-02-26T10:14:38;0.00;86.80
4376;DHT22;2202;50.866;12.750;2023-02-26T10:17:16;-0.10;87.60
4376;DHT22;2202;50.866;12.750;2023-02-26T10:19:47;-0.20;88.80
4376;DHT22;2202;50.866;12.750;2023-02-26T10:22:23;-0.10;89.20
4376;DHT22;2202;50.866;12.750;2023-02-26T10:24:57;0.10;89.00
4376;DHT22;2202;50.866;12.750;2023-02-26T10:27:35;0.10;86.80
4376;DHT22;2202;50.866;12.750;2023-02-26T10:30:07;0.00;87.60
4376;DHT22;2202;50.866;12.750;2023-02-26T10:32:42;0.00;88.20
4376;DHT22;2202;50.866;12.750;2023-02-26T10:35:14;-0.10;86.80
4376;DHT22;2202;50.866;12.750;2023-02-26T10:37:47;-0.10;87.40
4376;DHT22;2202;50.866;12.750;2023-02-26T10:40:18;-0.20;87.60
4376;DHT22;2202;50.866;12.750;2023-02-26T10:42:49;-0.20;88.00
4376;DHT22;2202;50.866;12.750;2023-02-26T10:45:29;-0.20;89.40
4376;DHT22;2202;50.866;12.750;2023-02-26T10:48:09;0.00;88.00
4376;DHT22;2202;50.866;12.750;2023-02-26T10:50:43;0.10;87.60
4376;DHT22;2202;50.866;12.750;2023-02-26T10:53:12;0.30;86.40
4376;DHT22;2202;50.866;12.750;2023-02-26T10:55:42;0.40;84.80
4376;DHT22;2202;50.866;12.750;2023-02-26T10:58:12;0.50;84.60
4376;DHT22;2202;50.866;12.750;2023-02-26T11:00:42;0.60;85.00
4376;DHT22;2202;50.866;12.750;2023-02-26T11:03:16;0.60;84.60
4376;DHT22;2202;50.866;12.750;2023-02-26T11:05:43;0.60;83.20
4376;DHT22;2202;50.866;12.750;2023-02-26T11:08:15;0.60;83.20
4376;DHT22;2202;50.866;12.750;2023-02-26T11:10:47;0.70;84.00
4376;DHT22;2202;50.866;12.750;2023-02-26T11:13:16;0.80;84.40
4376;DHT22;2202;50.866;12.750;2023-02-26T11:15:46;0.90;81.60
4376;DHT22;2202;50.866;12.750;2023-02-26T11:18:20;0.80;80.40
4376;DHT22;2202;50.866;12.750;2023-02-26T11:20:48;0.80;82.80
4376;DHT22;2202;50.866;12.750;2023-02-26T11:23:18;1.00;82.60
4376;DHT22;2202;50.866;12.750;2023-02-26T11:25:52;1.20;81.80
4376;DHT22;2202;50.866;12.750;2023-02-26T11:28:22;1.30;81.40
4376;DHT22;2202;50.866;12.750;2023-02-26T11:30:50;1.30;79.40
4376;DHT22;2202;50.866;12.750;2023-02-26T11:33:26;1.50;82.40
4376;DHT22;2202;50.866;12.750;2023-02-26T11:35:59;1.40;80.20
4376;DHT22;2202;50.866;12.750;2023-02-26T11:38:27;1.40;80.00
4376;DHT22;2202;50.866;12.750;2023-02-26T11:40:56;1.40;79.40
4376;DHT22;2202;50.866;12.750;2023-02-26T11:43:25;1.20;79.60
4376;DHT22;2202;50.866;12.750;2023-02-26T11:45:59;1.20;80.40
4376;DHT22;2202;50.866;12.750;2023-02-26T11:48:35;1.20;80.40
4376;DHT22;2202;50.866;12.750;2023-02-26T11:51:04;0.90;79.40
4376;DHT22;2202;50.866;12.750;2023-02-26T11:53:34;0.70;80.20
4376;DHT22;2202;50.866;12.750;2023-02-26T11:56:03;0.40;82.40
4376;DHT22;2202;50.866;12.750;2023-02-26T11:58:36;0.50;83.00
4376;DHT22;2202;50.866;12.750;2023-02-26T12:01:05;0.70;84.20
4376;DHT22;2202;50.866;12.750;2023-02-26T12:03:37;0.70;81.20
4376;DHT22;2202;50.866;12.750;2023-02-26T12:06:06;0.60;81.40
4376;DHT22;2202;50.866;12.750;2023-02-26T12:08:35;0.60;81.40
4376;DHT22;2202;50.866;12.750;2023-02-26T12:11:28;0.70;83.00
4376;DHT22;2202;50.866;12.750;2023-02-26T12:14:13;0.60;82.40
4376;DHT22;2202;50.866;12.750;2023-02-26T12:16:50;0.60;82.20
4376;DHT22;2202;50.866;12.750;2023-02-26T12:19:39;0.50;82.40
4376;DHT22;2202;50.866;12.750;2023-02-26T12:22:15;0.50;82.40
4376;DHT22;2202;50.866;12.750;2023-02-26T12:25:01;0.60;83.60
4376;DHT22;2202;50.866;12.750;2023-02-26T12:27:39;0.60;82.80
4376;DHT22;2202;50.866;12.750;2023-02-26T12:30:24;0.60;83.00
4376;DHT22;2202;50.866;12.750;2023-02-26T12:33:03;0.60;84.00
4376;DHT22;2202;50.866;12.750;2023-02-26T12:35:44;0.50;82.80
4376;DHT22;2202;50.866;12.750;2023-02-26T12:38:20;0.20;84.60
4376;DHT22;2202;50.866;12.750;2023-02-26T12:41:09;0.20;85.00
4376;DHT22;2202;50.866;12.750;2023-02-26T12:43:44;0.50;86.00
4376;DHT22;2202;50.866;12.750;2023-02-26T12:46:19;0.50;81.80
4376;DHT22;2202;50.866;12.750;2023-02-26T12:51:57;0.70;83.20
4376;DHT22;2202;50.866;12.750;2023-02-26T12:54:41;0.80;79.20
4376;DHT22;2202;50.866;12.750;2023-02-26T12:57:34;0.90;81.80
4376;DHT22;2202;50.866;12.750;2023-02-26T13:00:42;1.10;80.20
4376;DHT22;2202;50.866;12.750;2023-02-26T13:03:34;1.20;81.20
4376;DHT22;2202;50.866;12.750;2023-02-26T13:06:20;1.30;79.80
4376;DHT22;2202;50.866;12.750;2023-02-26T13:09:00;1.40;80.40
4376;DHT22;2202;50.866;12.750;2023-02-26T13:11:42;1.60;77.40
4376;DHT22;2202;50.866;12.750;2023-02-26T13:14:20;1.60;75.20
4376;DHT22;2202;50.866;12.750;2023-02-26T13:16:53;1.60;75.60
4376;DHT22;2202;50.866;12.750;2023-02-26T13:19:30;1.50;74.00
4376;DHT22;2202;50.866;12.750;2023-02-26T13:22:02;1.20;77.60
4376;DHT22;2202;50.866;12.750;2023-02-26T13:24:35;1.10;81.20
4376;DHT22;2202;50.866;12.750;2023-02-26T13:27:04;0.90;81.80
4376;DHT22;2202;50.866;12.750;2023-02-26T13:29:35;0.80;84.20
4376;DHT22;2202;50.866;12.750;2023-02-26T13:32:07;0.60;84.80
4376;DHT22;2202;50.866;12.750;2023-02-26T13:34:40;0.50;86.80
4376;DHT22;2202;50.866;12.750;2023-02-26T13:37:17;0.30;87.40
4376;DHT22;2202;50.866;12.750;2023-02-26T13:39:54;0.30;89.60
4376;DHT22;2202;50.866;12.750;2023-02-26T13:42:30;0.10;90.50
4376;DHT22;2202;50.866;12.750;2023-02-26T13:45:14;0.00;91.40
4376;DHT22;2202;50.866;12.750;2023-02-26T13:50:49;-0.30;92.50
4376;DHT22;2202;50.866;12.750;2023-02-26T13:53:47;-0.30;92.60
4376;DHT22;2202;50.866;12.750;2023-02-26T13:56:21;-0.40;92.40
4376;DHT22;2202;50.866;12.750;2023-02-26T13:58:51;-0.40;92.70
4376;DHT22;2202;50.866;12.750;2023-02-26T14:01:26;-0.40;92.80
4376;DHT22;2202;50.866;12.750;2023-02-26T14:04:23;-0.40;92.80
4376;DHT22;2202;50.866;12.750;2023-02-26T14:06:51;-0.20;93.20
4376;DHT22;2202;50.866;12.750;2023-02-26T14:09:45;0.20;93.30
4376;DHT22;2202;50.866;12.750;2023-02-26T14:12:32;0.40;92.50
4376;DHT22;2202;50.866;12.750;2023-02-26T14:15:27;0.40;91.80
4376;DHT22;2202;50.866;12.750;2023-02-26T14:18:04;0.40;91.50
4376;DHT22;2202;50.866;12.750;2023-02-26T14:20:33;0.20;91.10
4376;DHT22;2202;50.866;12.750;2023-02-26T14:23:16;0.10;90.00
4376;DHT22;2202;50.866;12.750;2023-02-26T14:25:47;0.00;89.40
4376;DHT22;2202;50.866;12.750;2023-02-26T14:28:32;0.10;88.60
4376;DHT22;2202;50.866;12.750;2023-02-26T14:31:13;0.10;86.20
4376;DHT22;2202;50.866;12.750;2023-02-26T14:33:44;0.10;85.80
4376;DHT22;2202;50.866;12.750;2023-02-26T14:36:17;0.10;86.20
4376;DHT22;2202;50.866;12.750;2023-02-26T14:38:47;0.10;86.40
4376;DHT22;2202;50.866;12.750;2023-02-26T14:41:24;0.20;87.00
4376;DHT22;2202;50.866;12.750;2023-02-26T14:43:58;0.30;87.60
4376;DHT22;2202;50.866;12.750;2023-02-26T14:46:26;0.40;86.80
4376;DHT22;2202;50.866;12.750;2023-02-26T14:48:53;0.50;86.60
4376;DHT22;2202;50.866;12.750;2023-02-26T14:51:26;0.60;86.00
4376;DHT22;2202;50.866;12.750;2023-02-26T14:54:07;0.80;84.60
4376;DHT22;2202;50.866;12.750;2023-02-26T14:56:47;0.80;83.80
4376;DHT22;2202;50.866;12.750;2023-02-26T14:59:34;1.00;84.40
4376;DHT22;2202;50.866;12.750;2023-02-26T15:02:17;1.10;82.60
4376;DHT22;2202;50.866;12.750;2023-02-26T15:08:18;0.80;82.60
4376;DHT22;2202;50.866;12.750;2023-02-26T15:11:07;1.00;82.80
4376;DHT22;2202;50.866;12.750;2023-02-26T15:14:05;1.20;82.20
4376;DHT22;2202;50.866;12.750;2023-02-26T15:16:44;1.20;81.00
4376;DHT22;2202;50.866;12.750;2023-02-26T15:19:26;1.20;80.40
4376;DHT22;2202;50.866;12.750;2023-02-26T15:22:05;1.00;80.60
4376;DHT22;2202;50.866;12.750;2023-02-26T15:24:35;0.70;81.40
4376;DHT22;2202;50.866;12.750;2023-02-26T15:27:04;0.70;81.20
4376;DHT22;2202;50.866;12.750;2023-02-26T15:29:37;0.70;83.20
4376;DHT22;2202;50.866;12.750;2023-02-26T15:32:14;0.80;82.60
4376;DHT22;2202;50.866;12.750;2023-02-26T15:34:45;0.70;80.60
4376;DHT22;2202;50.866;12.750;2023-02-26T15:37:20;0.80;81.00
4376;DHT22;2202;50.866;12.750;2023-02-26T15:39:48;0.80;81.40
4376;DHT22;2202;50.866;12.750;2023-02-26T15:42:16;0.90;80.60
4376;DHT22;2202;50.866;12.750;2023-02-26T15:44:45;0.70;79.00
4376;DHT22;2202;50.866;12.750;2023-02-26T15:47:14;0.60;79.40
4376;DHT22;2202;50.866;12.750;2023-02-26T15:49:44;0.40;79.60
4376;DHT22;2202;50.866;12.750;2023-02-26T15:52:14;0.40;80.80
4376;DHT22;2202;50.866;12.750;2023-02-26T15:54:45;0.30;81.60
4376;DHT22;2202;50.866;12.750;2023-02-26T15:57:14;0.20;82.80
4376;DHT22;2202;50.866;12.750;2023-02-26T15:59:43;0.00;83.80
4376;DHT22;2202;50.866;12.750;2023-02-26T16:02:12;0.00;84.60
4376;DHT22;2202;50.866;12.750;2023-02-26T16:04:41;0.00;84.80
4376;DHT22;2202;50.866;12.750;2023-02-26T16:07:09;0.00;84.20
4376;DHT22;2202;50.866;12.750;2023-02-26T16:09:39;-0.10;84.60
4376;DHT22;2202;50.866;12.750;2023-02-26T16:12:08;-0.20;85.40
4376;DHT22;2202;50.866;12.750;2023-02-26T16:14:38;-0.20;85.20
4376;DHT22;2202;50.866;12.750;2023-02-26T16:17:09;-0.20;85.60
4376;DHT22;2202;50.866;12.750;2023-02-26T16:19:38;-0.20;85.60
4376;DHT22;2202;50.866;12.750;2023-02-26T16:22:18;-0.30;84.20
4376;DHT22;2202;50.866;12.750;2023-02-26T16:24:51;-0.30;84.60
4376;DHT22;2202;50.866;12.750;2023-02-26T16:27:19;-0.40;84.60
4376;DHT22;2202;50.866;12.750;2023-02-26T16:29:49;-0.40;84.60
4376;DHT22;2202;50.866;12.750;2023-02-26T16:32:17;-0.50;84.20
4376;DHT22;2202;50.866;12.750;2023-02-26T16:34:49;-0.50;84.60